createdAt,value
2023-03-14T00:00:19.013Z,5.11
2023-03-14T00:03:05.872Z,5.29
2023-03-14T00:05:48.146Z,5.40
2023-03-14T00:08:36.904Z,5.47
2023-03-14T00:11:18.786Z,5.39
2023-03-14T00:14:14.151Z,5.46
2023-03-14T00:17:00.940Z,5.48
2023-03-14T00:19:50.600Z,5.60
2023-03-14T00:22:33.951Z,5.61
2023-03-14T00:25:18.051Z,5.72
2023-03-14T00:27:56.963Z,5.76
2023-03-14T00:30:41.432Z,5.71
2023-03-14T00:33:23.647Z,5.61
2023-03-14T00:36:21.378Z,5.58
2023-03-14T00:39:06.547Z,5.64
2023-03-14T00:41:49.946Z,5.66
2023-03-14T00:44:37.049Z,5.73
2023-03-14T00:47:33.190Z,5.69
2023-03-14T00:50:17.026Z,5.74
2023-03-14T00:53:01.693Z,5.65
2023-03-14T00:55:43.440Z,5.62
2023-03-14T00:58:22.476Z,5.68
2023-03-14T01:01:06.777Z,5.65
2023-03-14T01:03:48.597Z,5.74
2023-03-14T01:06:36.697Z,5.73
2023-03-14T01:09:17.479Z,5.65
2023-03-14T01:12:00.690Z,5.56
2023-03-14T01:14:43.918Z,5.47
2023-03-14T01:17:35.297Z,5.53
2023-03-14T01:20:16.015Z,5.44
2023-03-14T01:23:02.713Z,5.34
2023-03-14T01:25:49.186Z,5.16
2023-03-14T01:28:25.988Z,5.12
2023-03-14T01:31:12.668Z,5.14
2023-03-14T01:33:59.526Z,5.08
2023-03-14T01:36:38.157Z,5.03
2023-03-14T01:39:23.040Z,5.08
2023-03-14T01:42:08.049Z,4.98
2023-03-14T01:45:29.483Z,4.93
2023-03-14T01:48:13.305Z,4.95
2023-03-14T01:51:01.536Z,4.74
2023-03-14T01:53:44.887Z,4.77
2023-03-14T01:56:29.723Z,4.66
2023-03-14T01:59:17.039Z,4.74
2023-03-14T02:02:00.773Z,4.66
2023-03-14T02:04:47.954Z,4.62
2023-03-14T02:07:52.319Z,4.76
2023-03-14T02:10:53.589Z,4.91
2023-03-14T02:14:08.961Z,4.81
2023-03-14T02:17:13.603Z,4.70
2023-03-14T02:20:24.534Z,4.82
2023-03-14T02:23:09.568Z,4.88
2023-03-14T02:25:54.939Z,4.84
2023-03-14T02:28:38.670Z,4.75
2023-03-14T02:31:27.779Z,4.73
2023-03-14T02:34:10.553Z,4.68
2023-03-14T02:36:53.992Z,4.66
2023-03-14T02:39:49.971Z,4.52
2023-03-14T02:42:27.537Z,4.71
2023-03-14T02:45:18.083Z,4.49
2023-03-14T02:48:03.913Z,4.34
2023-03-14T02:50:57.033Z,4.35
2023-03-14T02:53:50.755Z,4.34
2023-03-14T02:56:38.980Z,4.16
2023-03-14T02:59:25.851Z,4.01
2023-03-14T03:02:21.974Z,3.66
2023-03-14T03:05:06.774Z,3.64
2023-03-14T03:08:01.889Z,3.75
2023-03-14T03:10:44.954Z,3.56
2023-03-14T03:13:30.684Z,3.52
2023-03-14T03:16:31.964Z,3.44
2023-03-14T03:19:16.982Z,3.54
2023-03-14T03:22:00.302Z,3.72
2023-03-14T03:24:41.337Z,3.86
2023-03-14T03:27:26.732Z,3.96
2023-03-14T03:30:10.370Z,4.02
2023-03-14T03:32:48.839Z,4.07
2023-03-14T03:35:33.179Z,4.18
2023-03-14T03:38:12.834Z,4.05
2023-03-14T03:40:54.188Z,3.85
2023-03-14T03:43:33.433Z,3.82
2023-03-14T03:46:17.425Z,3.81
2023-03-14T03:49:03.012Z,3.85
2023-03-14T03:51:46.153Z,3.99
2023-03-14T03:54:30.467Z,3.92
2023-03-14T03:57:11.760Z,3.77
2023-03-14T04:00:06.446Z,3.67
2023-03-14T04:02:55.059Z,3.69
2023-03-14T04:05:39.625Z,3.67
2023-03-14T04:08:35.638Z,3.43
2023-03-14T04:11:19.455Z,3.37
2023-03-14T04:14:16.226Z,3.35
2023-03-14T04:17:03.889Z,3.51
2023-03-14T04:19:51.112Z,3.63
2023-03-14T04:22:32.754Z,3.67
2023-03-14T04:25:26.751Z,3.71
2023-03-14T04:28:05.114Z,3.76
2023-03-14T04:30:47.035Z,3.80
2023-03-14T04:33:38.233Z,3.81
2023-03-14T04:36:31.476Z,3.80
2023-03-14T04:39:18.485Z,3.91
2023-03-14T04:42:20.720Z,3.94
2023-03-14T04:45:04.707Z,4.10
2023-03-14T04:47:46.754Z,4.20
2023-03-14T04:50:32.228Z,4.26
2023-03-14T04:53:18.501Z,4.03
2023-03-14T04:56:10.623Z,3.99
2023-03-14T04:58:57.092Z,3.86
2023-03-14T05:01:42.306Z,3.74
2023-03-14T05:04:58.542Z,3.48
2023-03-14T05:08:02.658Z,3.64
2023-03-14T05:11:11.211Z,3.64
2023-03-14T05:14:07.170Z,3.56
2023-03-14T05:17:01.855Z,3.52
2023-03-14T05:19:42.100Z,3.46
2023-03-14T05:22:45.114Z,3.64
2023-03-14T05:25:52.026Z,3.63
2023-03-14T05:29:16.969Z,3.69
2023-03-14T05:32:06.433Z,3.54
2023-03-14T05:35:08.244Z,3.61
2023-03-14T05:38:19.975Z,3.98
2023-03-14T05:41:23.929Z,4.43
2023-03-14T05:44:28.469Z,4.69
2023-03-14T05:47:12.152Z,4.96
2023-03-14T05:50:17.229Z,5.28
2023-03-14T05:53:12.429Z,5.71
2023-03-14T05:56:13.208Z,6.08
2023-03-14T05:59:17.403Z,6.58
2023-03-14T06:02:24.368Z,7.13
2023-03-14T06:05:19.883Z,7.57
2023-03-14T06:08:13.648Z,8.17
2023-03-14T06:11:03.306Z,8.73
2023-03-14T06:13:47.950Z,9.19
2023-03-14T06:16:33.877Z,9.50
2023-03-14T06:19:22.165Z,9.84
2023-03-14T06:22:11.806Z,10.22
2023-03-14T06:24:59.706Z,10.58
2023-03-14T06:27:38.514Z,10.93
2023-03-14T06:30:19.126Z,11.11
2023-03-14T06:33:09.854Z,11.24
2023-03-14T06:36:04.002Z,11.17
2023-03-14T06:38:58.138Z,11.18
2023-03-14T06:41:42.050Z,11.15
2023-03-14T06:44:25.419Z,11.19
2023-03-14T06:47:07.041Z,11.31
2023-03-14T06:49:46.706Z,11.34
2023-03-14T06:52:38.692Z,11.51
2023-03-14T06:55:28.348Z,11.51
2023-03-14T06:58:23.488Z,11.69
2023-03-14T07:01:05.319Z,11.69
2023-03-14T07:03:55.762Z,11.76
2023-03-14T07:06:48.285Z,11.96
2023-03-14T07:09:29.629Z,12.04
2023-03-14T07:12:16.638Z,11.89
2023-03-14T07:15:19.115Z,11.92
2023-03-14T07:18:12.884Z,11.99
2023-03-14T07:20:55.305Z,11.93
2023-03-14T07:23:36.627Z,12.08
2023-03-14T07:26:28.943Z,12.25
2023-03-14T07:29:09.777Z,12.45
2023-03-14T07:31:54.077Z,12.54
2023-03-14T07:34:37.829Z,12.48
2023-03-14T07:37:26.907Z,12.53
2023-03-14T07:40:13.588Z,12.67
2023-03-14T07:43:10.091Z,12.79
2023-03-14T07:46:09.507Z,12.94
2023-03-14T07:48:47.360Z,13.15
2023-03-14T07:51:34.163Z,13.50
2023-03-14T07:54:25.877Z,13.94
2023-03-14T07:57:21.013Z,14.22
2023-03-14T08:00:10.096Z,14.61
2023-03-14T08:03:03.908Z,14.88
2023-03-14T08:05:55.725Z,15.09
2023-03-14T08:08:52.234Z,14.94
2023-03-14T08:11:36.675Z,14.92
2023-03-14T08:14:16.119Z,15.06
2023-03-14T08:16:57.299Z,15.12
2023-03-14T08:19:43.062Z,15.08
2023-03-14T08:22:24.028Z,15.18
2023-03-14T08:25:04.007Z,15.14
2023-03-14T08:27:44.635Z,15.57
2023-03-14T08:30:27.486Z,15.80
2023-03-14T08:33:11.167Z,15.84
2023-03-14T08:36:11.774Z,15.98
2023-03-14T08:38:58.691Z,16.12
2023-03-14T08:41:41.384Z,16.19
2023-03-14T08:44:24.730Z,16.41
2023-03-14T08:47:18.040Z,16.27
2023-03-14T08:50:00.462Z,16.19
2023-03-14T08:52:41.336Z,16.36
2023-03-14T08:55:35.995Z,16.70
2023-03-14T08:58:26.022Z,16.94
2023-03-14T09:01:22.455Z,17.13
2023-03-14T09:04:00.836Z,17.17
2023-03-14T09:06:45.360Z,17.49
2023-03-14T09:09:32.308Z,17.42
2023-03-14T09:12:19.474Z,17.38
2023-03-14T09:15:06.419Z,17.76
2023-03-14T09:17:50.356Z,18.03
2023-03-14T09:20:59.530Z,18.00
2023-03-14T09:23:52.958Z,18.09
2023-03-14T09:26:37.664Z,18.25
2023-03-14T09:29:21.987Z,18.18
2023-03-14T09:32:05.876Z,18.46
2023-03-14T09:34:49.041Z,18.34
2023-03-14T09:37:41.649Z,18.34
2023-03-14T09:40:36.046Z,18.21
2023-03-14T09:43:21.426Z,18.31
2023-03-14T09:46:03.153Z,18.46
2023-03-14T09:48:52.979Z,18.43
2023-03-14T09:51:33.699Z,18.42
2023-03-14T09:54:30.497Z,18.56
2023-03-14T09:57:12.636Z,18.63
2023-03-14T10:00:02.705Z,18.38
2023-03-14T10:02:47.643Z,18.55
2023-03-14T10:05:30.736Z,18.63
2023-03-14T10:08:16.455Z,18.82
2023-03-14T10:11:06.933Z,18.77
2023-03-14T10:14:19.012Z,18.53
2023-03-14T10:17:05.844Z,18.99
2023-03-14T10:20:11.184Z,19.04
2023-03-14T10:23:00.121Z,19.16
2023-03-14T10:26:02.209Z,19.35
2023-03-14T10:29:08.250Z,19.46
2023-03-14T10:32:20.496Z,19.51
2023-03-14T10:35:23.103Z,19.81
2023-03-14T10:38:06.553Z,20.24
2023-03-14T10:40:53.953Z,20.06
2023-03-14T10:43:53.532Z,20.27
2023-03-14T10:46:34.942Z,19.85
2023-03-14T10:49:56.875Z,19.48
2023-03-14T10:53:03.567Z,19.83
2023-03-14T10:55:47.747Z,19.70
2023-03-14T10:58:52.747Z,19.68
2023-03-14T11:01:53.683Z,19.98
2023-03-14T11:05:05.730Z,20.27
2023-03-14T11:07:51.664Z,20.56
2023-03-14T11:10:51.406Z,21.02
2023-03-14T11:13:40.682Z,21.11
2023-03-14T11:16:49.663Z,21.03
2023-03-14T11:19:47.760Z,20.97
2023-03-14T11:22:32.561Z,20.98
2023-03-14T11:25:36.006Z,21.09
2023-03-14T11:28:48.877Z,21.24
2023-03-14T11:31:45.240Z,21.02
2023-03-14T11:34:44.601Z,20.76
2023-03-14T11:37:47.623Z,20.92
2023-03-14T11:40:48.944Z,21.19
2023-03-14T11:43:38.935Z,21.42
2023-03-14T11:46:34.391Z,21.63
2023-03-14T11:49:48.607Z,20.89
2023-03-14T11:52:54.068Z,21.03
2023-03-14T11:55:46.309Z,20.95
2023-03-14T11:58:44.439Z,21.06
2023-03-14T12:01:30.365Z,21.15
2023-03-14T12:04:16.683Z,21.38
2023-03-14T12:07:04.650Z,21.41
2023-03-14T12:09:53.669Z,21.22
2023-03-14T12:12:37.028Z,21.44
2023-03-14T12:15:27.480Z,21.16
2023-03-14T12:18:20.860Z,21.15
2023-03-14T12:21:15.822Z,20.93
2023-03-14T12:24:10.727Z,21.08
2023-03-14T12:27:14.207Z,21.24
2023-03-14T12:30:26.032Z,21.06
2023-03-14T12:33:31.072Z,20.97
2023-03-14T12:36:21.316Z,20.39
2023-03-14T12:39:29.651Z,20.08
2023-03-14T12:42:44.035Z,19.99
2023-03-14T12:45:38.113Z,19.81
2023-03-14T12:48:34.564Z,19.73
2023-03-14T12:51:33.721Z,19.73
2023-03-14T12:54:58.238Z,19.79
2023-03-14T12:58:03.622Z,19.64
2023-03-14T13:00:55.247Z,19.70
2023-03-14T13:03:48.852Z,19.47
2023-03-14T13:06:58.090Z,19.47
2023-03-14T13:10:05.486Z,19.41
2023-03-14T13:13:08.558Z,19.38
2023-03-14T13:16:06.418Z,19.30
2023-03-14T13:19:23.252Z,19.19
2023-03-14T13:22:09.964Z,18.99
2023-03-14T13:25:22.204Z,18.97
2023-03-14T13:28:06.114Z,19.01
2023-03-14T13:31:00.102Z,18.91
2023-03-14T13:33:49.165Z,18.79
2023-03-14T13:36:34.435Z,18.74
2023-03-14T13:39:31.234Z,18.85
2023-03-14T13:42:17.672Z,18.87
2023-03-14T13:44:59.681Z,18.65
2023-03-14T13:47:51.905Z,18.19
2023-03-14T13:50:43.402Z,17.90
2023-03-14T13:53:39.708Z,17.73
2023-03-14T13:56:20.350Z,17.47
2023-03-14T13:59:10.773Z,17.29
2023-03-14T14:01:57.455Z,17.40
2023-03-14T14:04:50.320Z,17.50
2023-03-14T14:07:38.146Z,17.53
2023-03-14T14:10:32.044Z,17.48
2023-03-14T14:13:18.480Z,17.52
2023-03-14T14:16:16.617Z,17.62
2023-03-14T14:18:56.556Z,17.72
2023-03-14T14:21:43.606Z,17.88
2023-03-14T14:24:36.341Z,17.92
2023-03-14T14:27:31.635Z,17.88
2023-03-14T14:30:36.843Z,18.03
2023-03-14T14:33:27.704Z,18.18
2023-03-14T14:36:09.369Z,18.07
2023-03-14T14:39:06.230Z,17.93
2023-03-14T14:41:51.868Z,18.08
2023-03-14T14:44:48.615Z,18.20
2023-03-14T14:47:40.549Z,18.09
2023-03-14T14:50:38.801Z,18.16
2023-03-14T14:53:30.529Z,18.02
2023-03-14T14:56:27.046Z,18.03
2023-03-14T14:59:23.698Z,18.05
2023-03-14T15:02:21.665Z,18.00
2023-03-14T15:05:01.656Z,17.96
2023-03-14T15:07:39.033Z,17.94
2023-03-14T15:10:27.749Z,17.91
2023-03-14T15:13:06.240Z,17.89
2023-03-14T15:15:51.317Z,17.76
2023-03-14T15:18:39.788Z,17.63
2023-03-14T15:21:21.702Z,17.61
2023-03-14T15:24:07.130Z,17.53
2023-03-14T15:26:49.676Z,17.41
2023-03-14T15:29:40.772Z,17.36
2023-03-14T15:32:38.816Z,17.30
2023-03-14T15:35:32.158Z,17.32
2023-03-14T15:38:24.544Z,17.32
2023-03-14T15:41:19.638Z,17.26
2023-03-14T15:44:09.501Z,17.25
2023-03-14T15:46:53.522Z,17.11
2023-03-14T15:49:46.880Z,16.99
2023-03-14T15:52:32.693Z,16.96
2023-03-14T15:55:28.605Z,17.00
2023-03-14T15:58:21.890Z,17.05
2023-03-14T16:01:01.015Z,16.92
2023-03-14T16:03:56.076Z,16.69
2023-03-14T16:06:42.083Z,16.30
2023-03-14T16:09:31.044Z,16.01
2023-03-14T16:12:16.221Z,15.93
2023-03-14T16:15:16.329Z,15.60
2023-03-14T16:18:00.823Z,15.34
2023-03-14T16:20:51.609Z,15.38
2023-03-14T16:23:42.353Z,15.19
2023-03-14T16:26:37.546Z,15.15
2023-03-14T16:29:32.442Z,15.13
2023-03-14T16:32:21.153Z,15.12
2023-03-14T16:35:10.024Z,14.99
2023-03-14T16:37:53.431Z,14.83
2023-03-14T16:40:45.129Z,14.65
2023-03-14T16:43:28.364Z,14.56
2023-03-14T16:46:17.648Z,14.13
2023-03-14T16:48:53.833Z,14.08
2023-03-14T16:51:43.287Z,13.94
2023-03-14T16:54:28.031Z,13.81
2023-03-14T16:57:10.800Z,13.75
2023-03-14T16:59:59.541Z,13.59
2023-03-14T17:02:40.453Z,13.54
2023-03-14T17:05:23.742Z,13.37
2023-03-14T17:08:09.517Z,13.44
2023-03-14T17:10:53.304Z,13.36
2023-03-14T17:13:44.282Z,13.14
2023-03-14T17:16:37.275Z,13.15
2023-03-14T17:19:18.589Z,13.09
2023-03-14T17:22:21.878Z,13.18
2023-03-14T17:25:15.807Z,13.22
2023-03-14T17:27:59.065Z,12.79
2023-03-14T17:30:43.595Z,13.00
2023-03-14T17:33:41.473Z,12.89
2023-03-14T17:36:29.488Z,12.94
2023-03-14T17:39:27.555Z,12.89
2023-03-14T17:42:16.685Z,12.84
2023-03-14T17:45:02.410Z,12.74
2023-03-14T17:47:53.838Z,12.72
2023-03-14T17:50:38.133Z,12.74
2023-03-14T17:53:26.569Z,12.63
2023-03-14T17:56:13.580Z,12.63
2023-03-14T17:59:03.891Z,12.52
2023-03-14T18:01:54.152Z,12.55
2023-03-14T18:04:47.171Z,12.74
2023-03-14T18:07:33.542Z,12.67
2023-03-14T18:10:17.620Z,12.58
2023-03-14T18:13:06.817Z,12.52
2023-03-14T18:15:55.606Z,12.69
2023-03-14T18:18:42.480Z,12.63
2023-03-14T18:21:30.335Z,12.45
2023-03-14T18:24:22.202Z,12.52
2023-03-14T18:27:15.608Z,12.42
2023-03-14T18:29:55.988Z,12.50
2023-03-14T18:32:37.175Z,12.43
2023-03-14T18:35:27.626Z,12.39
2023-03-14T18:38:19.408Z,12.34
2023-03-14T18:41:16.654Z,12.31
2023-03-14T18:44:08.845Z,12.42
2023-03-14T18:46:58.675Z,12.20
2023-03-14T18:49:43.836Z,12.21
2023-03-14T18:52:23.606Z,12.29
2023-03-14T18:55:07.905Z,12.19
2023-03-14T18:57:48.943Z,12.20
2023-03-14T19:00:37.431Z,11.86
2023-03-14T19:03:36.024Z,11.95
2023-03-14T19:06:24.389Z,12.02
2023-03-14T19:09:19.134Z,12.01
2023-03-14T19:12:07.495Z,12.08
2023-03-14T19:14:48.485Z,12.00
2023-03-14T19:17:41.102Z,11.98
2023-03-14T19:20:30.026Z,11.93
2023-03-14T19:23:16.562Z,11.91
2023-03-14T19:26:03.552Z,11.91
2023-03-14T19:28:50.057Z,11.87
2023-03-14T19:31:29.435Z,11.82
2023-03-14T19:34:13.603Z,11.82
2023-03-14T19:36:55.001Z,11.80
2023-03-14T19:39:38.969Z,11.72
2023-03-14T19:42:24.972Z,11.77
2023-03-14T19:45:13.082Z,11.76
2023-03-14T19:47:53.952Z,11.66
2023-03-14T19:50:42.768Z,11.81
2023-03-14T19:53:24.637Z,11.78
2023-03-14T19:56:14.126Z,11.74
2023-03-14T19:59:08.604Z,11.79
2023-03-14T20:01:54.803Z,11.59
2023-03-14T20:04:39.612Z,11.66
2023-03-14T20:07:26.050Z,11.70
2023-03-14T20:10:28.498Z,11.69
2023-03-14T20:13:21.918Z,11.71
2023-03-14T20:16:04.202Z,11.71
2023-03-14T20:18:44.898Z,11.83
2023-03-14T20:21:30.817Z,11.89
2023-03-14T20:24:13.482Z,11.86
2023-03-14T20:27:01.537Z,11.78
2023-03-14T20:29:43.945Z,11.68
2023-03-14T20:32:32.711Z,11.74
2023-03-14T20:35:38.519Z,11.88
2023-03-14T20:38:22.490Z,11.82
2023-03-14T20:41:10.706Z,11.64
2023-03-14T20:43:54.564Z,11.55
2023-03-14T20:46:48.475Z,11.46
2023-03-14T20:49:46.644Z,11.47
2023-03-14T20:52:38.056Z,11.50
2023-03-14T20:55:22.947Z,11.50
2023-03-14T20:58:08.585Z,11.46
2023-03-14T21:00:50.879Z,11.57
2023-03-14T21:03:41.619Z,11.38
2023-03-14T21:06:33.436Z,11.28
2023-03-14T21:09:20.592Z,11.40
2023-03-14T21:12:10.740Z,11.29
2023-03-14T21:15:00.414Z,11.22
2023-03-14T21:17:49.696Z,11.15
2023-03-14T21:21:03.174Z,11.21
2023-03-14T21:23:59.691Z,11.19
2023-03-14T21:26:48.796Z,11.06
2023-03-14T21:29:32.428Z,11.16
2023-03-14T21:34:52.820Z,11.23
2023-03-14T21:37:42.607Z,11.14
2023-03-14T21:40:22.607Z,11.17
2023-03-14T21:43:17.416Z,11.17
2023-03-14T21:45:59.587Z,11.14
2023-03-14T21:48:48.633Z,11.15
2023-03-14T21:51:48.996Z,11.13
2023-03-14T21:54:50.259Z,11.04
2023-03-14T21:57:31.105Z,10.90
2023-03-14T22:00:15.618Z,10.87
2023-03-14T22:03:13.218Z,10.65
2023-03-14T22:05:55.343Z,10.70
2023-03-14T22:08:37.095Z,10.70
2023-03-14T22:11:17.595Z,10.47
2023-03-14T22:14:09.586Z,10.42
2023-03-14T22:16:59.917Z,10.48
2023-03-14T22:19:57.542Z,10.40
2023-03-14T22:22:42.314Z,10.32
2023-03-14T22:25:31.809Z,10.22
2023-03-14T22:28:27.187Z,10.24
2023-03-14T22:31:08.623Z,10.31
2023-03-14T22:33:55.113Z,10.28
2023-03-14T22:36:39.562Z,10.29
2023-03-14T22:39:34.304Z,10.38
2023-03-14T22:42:22.825Z,10.41
2023-03-14T22:45:02.663Z,10.32
2023-03-14T22:47:52.446Z,10.36
2023-03-14T22:50:48.669Z,10.29
2023-03-14T22:53:28.886Z,10.17
2023-03-14T22:56:10.514Z,10.02
2023-03-14T22:58:57.580Z,9.94
2023-03-14T23:01:37.333Z,9.91
2023-03-14T23:04:21.014Z,9.93
2023-03-14T23:07:12.879Z,9.99
2023-03-14T23:09:55.294Z,9.88
2023-03-14T23:12:37.421Z,9.97
2023-03-14T23:15:18.461Z,9.87
2023-03-14T23:18:07.204Z,10.00
2023-03-14T23:20:51.296Z,9.94
2023-03-14T23:23:35.041Z,9.99
2023-03-14T23:26:29.417Z,9.98
2023-03-14T23:29:10.219Z,10.09
2023-03-14T23:32:04.620Z,10.09
2023-03-14T23:34:50.921Z,10.04
2023-03-14T23:37:40.226Z,10.10
2023-03-14T23:40:26.370Z,10.10
2023-03-14T23:43:19.773Z,9.98
2023-03-14T23:46:10.648Z,9.86
2023-03-14T23:48:53.861Z,9.97
2023-03-14T23:51:40.062Z,9.82
2023-03-14T23:54:28.799Z,9.79
2023-03-14T23:57:22.553Z,9.75
2023-03-14T23:59:59.415Z,9.64
